sensor_id;sensor_type;location;lat;lon;timestamp;P1;durP1;ratioP1;P2;durP2;ratioP2
68921;SDS011;55959;51.244;5.724;2023-12-20T00:01:26;4.73;;;3.80;;
68921;SDS011;55959;51.244;5.724;2023-12-20T00:03:52;7.57;;;3.60;;
68921;SDS011;55959;51.244;5.724;2023-12-20T00:06:17;8.97;;;3.70;;
68921;SDS011;55959;51.244;5.724;2023-12-20T00:08:43;7.57;;;3.30;;
68921;SDS011;55959;51.244;5.724;2023-12-20T00:11:09;7.23;;;3.73;;
68921;SDS011;55959;51.244;5.724;2023-12-20T00:13:35;5.77;;;2.83;;
68921;SDS011;55959;51.244;5.724;2023-12-20T00:16:00;5.53;;;2.20;;
68921;SDS011;55959;51.244;5.724;2023-12-20T00:18:26;5.00;;;2.20;;
68921;SDS011;55959;51.244;5.724;2023-12-20T00:20:52;4.07;;;2.23;;
68921;SDS011;55959;51.244;5.724;2023-12-20T00:23:17;5.73;;;2.70;;
68921;SDS011;55959;51.244;5.724;2023-12-20T00:25:43;7.37;;;2.23;;
68921;SDS011;55959;51.244;5.724;2023-12-20T00:28:09;5.97;;;2.70;;
68921;SDS011;55959;51.244;5.724;2023-12-20T00:30:35;6.27;;;2.43;;
68921;SDS011;55959;51.244;5.724;2023-12-20T00:33:01;7.03;;;2.30;;
68921;SDS011;55959;51.244;5.724;2023-12-20T00:35:27;6.77;;;2.40;;
68921;SDS011;55959;51.244;5.724;2023-12-20T00:37:53;6.40;;;1.70;;
68921;SDS011;55959;51.244;5.724;2023-12-20T00:40:19;6.10;;;1.80;;
68921;SDS011;55959;51.244;5.724;2023-12-20T00:42:45;5.97;;;1.70;;
68921;SDS011;55959;51.244;5.724;2023-12-20T00:45:11;7.07;;;1.83;;
68921;SDS011;55959;51.244;5.724;2023-12-20T00:47:38;4.50;;;1.73;;
68921;SDS011;55959;51.244;5.724;2023-12-20T00:50:04;5.53;;;1.90;;
68921;SDS011;55959;51.244;5.724;2023-12-20T00:52:30;4.73;;;1.37;;
68921;SDS011;55959;51.244;5.724;2023-12-20T00:54:56;6.30;;;1.90;;
68921;SDS011;55959;51.244;5.724;2023-12-20T00:57:21;9.33;;;2.10;;
68921;SDS011;55959;51.244;5.724;2023-12-20T00:59:47;4.23;;;1.60;;
68921;SDS011;55959;51.244;5.724;2023-12-20T01:02:13;3.93;;;1.50;;
68921;SDS011;55959;51.244;5.724;2023-12-20T01:04:39;6.20;;;1.80;;
68921;SDS011;55959;51.244;5.724;2023-12-20T01:07:04;6.37;;;2.17;;
68921;SDS011;55959;51.244;5.724;2023-12-20T01:09:30;4.17;;;1.67;;
68921;SDS011;55959;51.244;5.724;2023-12-20T01:11:56;6.40;;;1.93;;
68921;SDS011;55959;51.244;5.724;2023-12-20T01:14:21;6.93;;;1.83;;
68921;SDS011;55959;51.244;5.724;2023-12-20T01:16:47;6.43;;;1.80;;
68921;SDS011;55959;51.244;5.724;2023-12-20T01:19:13;9.77;;;1.60;;
68921;SDS011;55959;51.244;5.724;2023-12-20T01:21:40;7.40;;;1.50;;
68921;SDS011;55959;51.244;5.724;2023-12-20T01:24:05;6.60;;;1.97;;
68921;SDS011;55959;51.244;5.724;2023-12-20T01:26:31;7.27;;;1.63;;
68921;SDS011;55959;51.244;5.724;2023-12-20T01:28:57;5.83;;;1.60;;
68921;SDS011;55959;51.244;5.724;2023-12-20T01:31:23;9.20;;;1.80;;
68921;SDS011;55959;51.244;5.724;2023-12-20T01:33:48;6.27;;;1.53;;
68921;SDS011;55959;51.244;5.724;2023-12-20T01:36:14;6.27;;;1.53;;
68921;SDS011;55959;51.244;5.724;2023-12-20T01:38:40;7.67;;;1.77;;
68921;SDS011;55959;51.244;5.724;2023-12-20T01:41:06;6.07;;;1.30;;
68921;SDS011;55959;51.244;5.724;2023-12-20T01:43:32;5.50;;;1.40;;
68921;SDS011;55959;51.244;5.724;2023-12-20T01:45:58;5.57;;;1.67;;
68921;SDS011;55959;51.244;5.724;2023-12-20T01:48:25;7.53;;;1.43;;
68921;SDS011;55959;51.244;5.724;2023-12-20T01:50:51;3.37;;;1.23;;
68921;SDS011;55959;51.244;5.724;2023-12-20T01:53:19;5.63;;;1.50;;
68921;SDS011;55959;51.244;5.724;2023-12-20T01:55:47;5.43;;;1.63;;
68921;SDS011;55959;51.244;5.724;2023-12-20T01:58:15;9.60;;;1.70;;
68921;SDS011;55959;51.244;5.724;2023-12-20T02:00:42;5.03;;;1.57;;
68921;SDS011;55959;51.244;5.724;2023-12-20T02:03:08;6.87;;;1.87;;
68921;SDS011;55959;51.244;5.724;2023-12-20T02:05:35;6.00;;;1.73;;
68921;SDS011;55959;51.244;5.724;2023-12-20T02:08:02;8.10;;;2.03;;
68921;SDS011;55959;51.244;5.724;2023-12-20T02:10:28;2.73;;;1.30;;
68921;SDS011;55959;51.244;5.724;2023-12-20T02:12:54;4.37;;;1.70;;
68921;SDS011;55959;51.244;5.724;2023-12-20T02:15:20;7.57;;;1.90;;
68921;SDS011;55959;51.244;5.724;2023-12-20T02:17:46;4.60;;;1.50;;
68921;SDS011;55959;51.244;5.724;2023-12-20T02:20:13;4.03;;;1.70;;
68921;SDS011;55959;51.244;5.724;2023-12-20T02:22:39;7.50;;;1.87;;
68921;SDS011;55959;51.244;5.724;2023-12-20T02:25:05;6.17;;;1.77;;
68921;SDS011;55959;51.244;5.724;2023-12-20T02:27:31;4.67;;;1.40;;
68921;SDS011;55959;51.244;5.724;2023-12-20T02:29:57;4.87;;;1.97;;
68921;SDS011;55959;51.244;5.724;2023-12-20T02:32:23;3.70;;;1.90;;
68921;SDS011;55959;51.244;5.724;2023-12-20T02:34:54;6.47;;;1.60;;
68921;SDS011;55959;51.244;5.724;2023-12-20T02:37:20;4.47;;;1.60;;
68921;SDS011;55959;51.244;5.724;2023-12-20T02:39:46;8.87;;;2.57;;
68921;SDS011;55959;51.244;5.724;2023-12-20T02:42:12;9.97;;;1.70;;
68921;SDS011;55959;51.244;5.724;2023-12-20T02:44:38;5.50;;;1.57;;
68921;SDS011;55959;51.244;5.724;2023-12-20T02:47:03;8.00;;;2.03;;
68921;SDS011;55959;51.244;5.724;2023-12-20T02:49:29;7.27;;;2.13;;
68921;SDS011;55959;51.244;5.724;2023-12-20T02:51:55;8.37;;;2.77;;
68921;SDS011;55959;51.244;5.724;2023-12-20T02:54:21;8.47;;;2.63;;
68921;SDS011;55959;51.244;5.724;2023-12-20T02:56:48;6.07;;;1.63;;
68921;SDS011;55959;51.244;5.724;2023-12-20T02:59:13;7.13;;;2.53;;
68921;SDS011;55959;51.244;5.724;2023-12-20T03:01:43;6.00;;;2.30;;
68921;SDS011;55959;51.244;5.724;2023-12-20T03:04:10;6.47;;;2.30;;
68921;SDS011;55959;51.244;5.724;2023-12-20T03:06:37;4.73;;;2.13;;
68921;SDS011;55959;51.244;5.724;2023-12-20T03:09:03;7.40;;;2.30;;
68921;SDS011;55959;51.244;5.724;2023-12-20T03:11:29;8.43;;;2.90;;
68921;SDS011;55959;51.244;5.724;2023-12-20T03:13:55;5.43;;;2.57;;
68921;SDS011;55959;51.244;5.724;2023-12-20T03:16:21;7.77;;;2.30;;
68921;SDS011;55959;51.244;5.724;2023-12-20T03:18:47;6.23;;;2.67;;
68921;SDS011;55959;51.244;5.724;2023-12-20T03:21:13;5.53;;;2.40;;
68921;SDS011;55959;51.244;5.724;2023-12-20T03:23:39;4.70;;;2.50;;
68921;SDS011;55959;51.244;5.724;2023-12-20T03:26:08;7.53;;;2.80;;
68921;SDS011;55959;51.244;5.724;2023-12-20T03:28:35;4.83;;;2.40;;
68921;SDS011;55959;51.244;5.724;2023-12-20T03:31:01;8.87;;;2.43;;
68921;SDS011;55959;51.244;5.724;2023-12-20T03:33:28;12.27;;;3.20;;
68921;SDS011;55959;51.244;5.724;2023-12-20T03:35:54;9.17;;;3.13;;
68921;SDS011;55959;51.244;5.724;2023-12-20T03:38:20;7.90;;;2.80;;
68921;SDS011;55959;51.244;5.724;2023-12-20T03:40:48;7.53;;;3.07;;
68921;SDS011;55959;51.244;5.724;2023-12-20T03:43:15;8.37;;;3.10;;
68921;SDS011;55959;51.244;5.724;2023-12-20T03:45:41;9.40;;;3.00;;
68921;SDS011;55959;51.244;5.724;2023-12-20T03:48:07;10.20;;;3.50;;
68921;SDS011;55959;51.244;5.724;2023-12-20T03:50:34;6.23;;;3.00;;
68921;SDS011;55959;51.244;5.724;2023-12-20T03:53:00;7.50;;;3.40;;
68921;SDS011;55959;51.244;5.724;2023-12-20T03:55:26;7.23;;;3.30;;
68921;SDS011;55959;51.244;5.724;2023-12-20T03:57:52;8.37;;;3.10;;
68921;SDS011;55959;51.244;5.724;2023-12-20T04:00:18;10.77;;;4.27;;
68921;SDS011;55959;51.244;5.724;2023-12-20T04:02:43;8.53;;;3.57;;
68921;SDS011;55959;51.244;5.724;2023-12-20T04:05:09;6.90;;;3.53;;
68921;SDS011;55959;51.244;5.724;2023-12-20T04:07:35;7.80;;;3.67;;
68921;SDS011;55959;51.244;5.724;2023-12-20T04:10:02;10.90;;;3.40;;
68921;SDS011;55959;51.244;5.724;2023-12-20T04:12:28;6.17;;;3.40;;
68921;SDS011;55959;51.244;5.724;2023-12-20T04:14:55;7.10;;;3.37;;
68921;SDS011;55959;51.244;5.724;2023-12-20T04:17:21;8.50;;;3.33;;
68921;SDS011;55959;51.244;5.724;2023-12-20T04:19:50;8.90;;;3.40;;
68921;SDS011;55959;51.244;5.724;2023-12-20T04:22:17;7.77;;;3.20;;
68921;SDS011;55959;51.244;5.724;2023-12-20T04:24:43;8.20;;;3.53;;
68921;SDS011;55959;51.244;5.724;2023-12-20T04:27:09;9.67;;;3.63;;
68921;SDS011;55959;51.244;5.724;2023-12-20T04:29:36;8.23;;;3.30;;
68921;SDS011;55959;51.244;5.724;2023-12-20T04:32:02;7.20;;;2.90;;
68921;SDS011;55959;51.244;5.724;2023-12-20T04:34:28;9.67;;;3.67;;
68921;SDS011;55959;51.244;5.724;2023-12-20T04:36:54;10.67;;;3.40;;
68921;SDS011;55959;51.244;5.724;2023-12-20T04:39:20;6.73;;;3.07;;
68921;SDS011;55959;51.244;5.724;2023-12-20T04:41:46;7.60;;;3.13;;
68921;SDS011;55959;51.244;5.724;2023-12-20T04:44:15;10.90;;;3.67;;
68921;SDS011;55959;51.244;5.724;2023-12-20T04:46:41;9.97;;;3.47;;
68921;SDS011;55959;51.244;5.724;2023-12-20T04:49:06;6.93;;;2.93;;
68921;SDS011;55959;51.244;5.724;2023-12-20T04:51:33;8.53;;;3.17;;
68921;SDS011;55959;51.244;5.724;2023-12-20T04:53:59;11.60;;;3.37;;
68921;SDS011;55959;51.244;5.724;2023-12-20T04:56:26;11.97;;;3.93;;
68921;SDS011;55959;51.244;5.724;2023-12-20T04:58:52;10.27;;;3.30;;
68921;SDS011;55959;51.244;5.724;2023-12-20T05:01:17;9.80;;;3.27;;
68921;SDS011;55959;51.244;5.724;2023-12-20T05:03:43;9.07;;;2.90;;
68921;SDS011;55959;51.244;5.724;2023-12-20T05:06:09;9.07;;;3.33;;
68921;SDS011;55959;51.244;5.724;2023-12-20T05:08:35;11.33;;;3.33;;
68921;SDS011;55959;51.244;5.724;2023-12-20T05:11:01;7.73;;;2.97;;
68921;SDS011;55959;51.244;5.724;2023-12-20T05:13:27;11.20;;;3.57;;
68921;SDS011;55959;51.244;5.724;2023-12-20T05:15:53;8.80;;;2.70;;
68921;SDS011;55959;51.244;5.724;2023-12-20T05:18:20;13.00;;;3.63;;
68921;SDS011;55959;51.244;5.724;2023-12-20T05:20:46;9.77;;;3.00;;
68921;SDS011;55959;51.244;5.724;2023-12-20T05:23:12;10.57;;;3.83;;
68921;SDS011;55959;51.244;5.724;2023-12-20T05:25:38;10.13;;;3.20;;
68921;SDS011;55959;51.244;5.724;2023-12-20T05:28:04;8.77;;;3.90;;
68921;SDS011;55959;51.244;5.724;2023-12-20T05:30:30;9.77;;;2.80;;
68921;SDS011;55959;51.244;5.724;2023-12-20T05:32:56;9.53;;;3.17;;
68921;SDS011;55959;51.244;5.724;2023-12-20T05:35:22;9.33;;;3.00;;
68921;SDS011;55959;51.244;5.724;2023-12-20T05:37:48;9.07;;;3.17;;
68921;SDS011;55959;51.244;5.724;2023-12-20T05:40:14;12.90;;;3.70;;
68921;SDS011;55959;51.244;5.724;2023-12-20T05:42:40;9.27;;;2.93;;
68921;SDS011;55959;51.244;5.724;2023-12-20T05:45:06;5.93;;;2.70;;
68921;SDS011;55959;51.244;5.724;2023-12-20T05:47:32;9.03;;;2.70;;
68921;SDS011;55959;51.244;5.724;2023-12-20T05:49:58;9.47;;;3.07;;
68921;SDS011;55959;51.244;5.724;2023-12-20T05:52:24;8.33;;;2.90;;
68921;SDS011;55959;51.244;5.724;2023-12-20T05:54:49;11.43;;;3.53;;
68921;SDS011;55959;51.244;5.724;2023-12-20T05:57:15;8.23;;;3.03;;
68921;SDS011;55959;51.244;5.724;2023-12-20T05:59:41;11.37;;;3.23;;
68921;SDS011;55959;51.244;5.724;2023-12-20T06:02:06;9.33;;;3.53;;
68921;SDS011;55959;51.244;5.724;2023-12-20T06:04:32;8.40;;;2.80;;
68921;SDS011;55959;51.244;5.724;2023-12-20T06:06:58;11.27;;;3.27;;
68921;SDS011;55959;51.244;5.724;2023-12-20T06:09:24;10.23;;;2.57;;
68921;SDS011;55959;51.244;5.724;2023-12-20T06:11:52;11.80;;;4.17;;
68921;SDS011;55959;51.244;5.724;2023-12-20T06:14:18;6.37;;;2.30;;
68921;SDS011;55959;51.244;5.724;2023-12-20T06:16:44;8.77;;;2.77;;
68921;SDS011;55959;51.244;5.724;2023-12-20T06:19:10;9.10;;;2.23;;
68921;SDS011;55959;51.244;5.724;2023-12-20T06:21:36;10.00;;;2.77;;
68921;SDS011;55959;51.244;5.724;2023-12-20T06:24:02;8.53;;;3.03;;
68921;SDS011;55959;51.244;5.724;2023-12-20T06:26:28;9.00;;;2.77;;
68921;SDS011;55959;51.244;5.724;2023-12-20T06:28:54;9.27;;;2.80;;
68921;SDS011;55959;51.244;5.724;2023-12-20T06:31:20;7.73;;;2.67;;
68921;SDS011;55959;51.244;5.724;2023-12-20T06:33:46;8.97;;;3.83;;
68921;SDS011;55959;51.244;5.724;2023-12-20T06:36:12;9.80;;;3.10;;
68921;SDS011;55959;51.244;5.724;2023-12-20T06:38:38;10.90;;;2.90;;
68921;SDS011;55959;51.244;5.724;2023-12-20T06:41:05;9.93;;;3.23;;
68921;SDS011;55959;51.244;5.724;2023-12-20T06:43:34;13.23;;;2.73;;
68921;SDS011;55959;51.244;5.724;2023-12-20T06:46:02;5.80;;;2.50;;
68921;SDS011;55959;51.244;5.724;2023-12-20T06:48:28;7.93;;;2.63;;
68921;SDS011;55959;51.244;5.724;2023-12-20T06:50:54;11.17;;;3.83;;
68921;SDS011;55959;51.244;5.724;2023-12-20T06:53:19;11.73;;;2.93;;
68921;SDS011;55959;51.244;5.724;2023-12-20T06:55:45;14.07;;;4.03;;
68921;SDS011;55959;51.244;5.724;2023-12-20T06:58:11;12.50;;;3.30;;
68921;SDS011;55959;51.244;5.724;2023-12-20T07:00:37;11.63;;;3.53;;
68921;SDS011;55959;51.244;5.724;2023-12-20T07:03:03;10.07;;;2.60;;
68921;SDS011;55959;51.244;5.724;2023-12-20T07:05:29;10.03;;;3.00;;
68921;SDS011;55959;51.244;5.724;2023-12-20T07:07:54;8.53;;;3.90;;
68921;SDS011;55959;51.244;5.724;2023-12-20T07:10:20;10.47;;;3.33;;
68921;SDS011;55959;51.244;5.724;2023-12-20T07:12:46;6.57;;;2.40;;
68921;SDS011;55959;51.244;5.724;2023-12-20T07:15:13;11.83;;;2.97;;
68921;SDS011;55959;51.244;5.724;2023-12-20T07:17:39;8.33;;;2.57;;
68921;SDS011;55959;51.244;5.724;2023-12-20T07:20:05;8.50;;;2.80;;
68921;SDS011;55959;51.244;5.724;2023-12-20T07:22:34;11.33;;;3.13;;
68921;SDS011;55959;51.244;5.724;2023-12-20T07:25:00;11.10;;;2.90;;
68921;SDS011;55959;51.244;5.724;2023-12-20T07:27:26;9.57;;;3.20;;
68921;SDS011;55959;51.244;5.724;2023-12-20T07:29:52;10.87;;;2.90;;
68921;SDS011;55959;51.244;5.724;2023-12-20T07:32:18;11.17;;;3.30;;
68921;SDS011;55959;51.244;5.724;2023-12-20T07:34:44;9.50;;;3.00;;
68921;SDS011;55959;51.244;5.724;2023-12-20T07:37:10;11.90;;;3.50;;
68921;SDS011;55959;51.244;5.724;2023-12-20T07:39:37;11.67;;;2.83;;
68921;SDS011;55959;51.244;5.724;2023-12-20T07:42:05;9.87;;;3.63;;
68921;SDS011;55959;51.244;5.724;2023-12-20T07:44:32;7.47;;;2.93;;
68921;SDS011;55959;51.244;5.724;2023-12-20T07:46:57;15.07;;;3.97;;
68921;SDS011;55959;51.244;5.724;2023-12-20T07:49:23;11.70;;;3.83;;
68921;SDS011;55959;51.244;5.724;2023-12-20T07:51:49;10.10;;;3.03;;
68921;SDS011;55959;51.244;5.724;2023-12-20T07:54:15;13.10;;;3.57;;
68921;SDS011;55959;51.244;5.724;2023-12-20T07:56:41;9.73;;;2.53;;
68921;SDS011;55959;51.244;5.724;2023-12-20T07:59:07;10.03;;;2.93;;
68921;SDS011;55959;51.244;5.724;2023-12-20T08:01:33;12.03;;;3.40;;
68921;SDS011;55959;51.244;5.724;2023-12-20T08:03:59;5.83;;;2.70;;
68921;SDS011;55959;51.244;5.724;2023-12-20T08:06:24;14.07;;;3.30;;
68921;SDS011;55959;51.244;5.724;2023-12-20T08:08:50;10.23;;;2.70;;
68921;SDS011;55959;51.244;5.724;2023-12-20T08:11:16;11.53;;;2.97;;
68921;SDS011;55959;51.244;5.724;2023-12-20T08:13:42;9.23;;;2.90;;
68921;SDS011;55959;51.244;5.724;2023-12-20T08:16:08;7.00;;;3.17;;
68921;SDS011;55959;51.244;5.724;2023-12-20T08:18:34;13.17;;;3.47;;
68921;SDS011;55959;51.244;5.724;2023-12-20T08:21:00;7.17;;;2.73;;
68921;SDS011;55959;51.244;5.724;2023-12-20T08:23:26;9.03;;;3.00;;
68921;SDS011;55959;51.244;5.724;2023-12-20T08:25:52;12.33;;;3.30;;
68921;SDS011;55959;51.244;5.724;2023-12-20T08:28:18;9.73;;;3.17;;
68921;SDS011;55959;51.244;5.724;2023-12-20T08:30:44;10.10;;;2.47;;
68921;SDS011;55959;51.244;5.724;2023-12-20T08:33:10;11.23;;;3.03;;
68921;SDS011;55959;51.244;5.724;2023-12-20T08:35:38;8.97;;;2.77;;
68921;SDS011;55959;51.244;5.724;2023-12-20T08:38:05;9.50;;;2.77;;
68921;SDS011;55959;51.244;5.724;2023-12-20T08:40:31;8.57;;;2.67;;
68921;SDS011;55959;51.244;5.724;2023-12-20T08:42:56;10.40;;;2.83;;
68921;SDS011;55959;51.244;5.724;2023-12-20T08:45:22;10.57;;;2.90;;
68921;SDS011;55959;51.244;5.724;2023-12-20T08:47:48;9.97;;;3.30;;
68921;SDS011;55959;51.244;5.724;2023-12-20T08:50:14;8.77;;;2.40;;
68921;SDS011;55959;51.244;5.724;2023-12-20T08:52:40;9.03;;;3.00;;
68921;SDS011;55959;51.244;5.724;2023-12-20T08:55:07;9.60;;;2.97;;
68921;SDS011;55959;51.244;5.724;2023-12-20T08:57:33;8.47;;;3.10;;
68921;SDS011;55959;51.244;5.724;2023-12-20T08:59:59;8.20;;;2.77;;
68921;SDS011;55959;51.244;5.724;2023-12-20T09:02:24;8.33;;;2.87;;
68921;SDS011;55959;51.244;5.724;2023-12-20T09:04:50;9.70;;;3.23;;
68921;SDS011;55959;51.244;5.724;2023-12-20T09:07:23;10.33;;;3.20;;
68921;SDS011;55959;51.244;5.724;2023-12-20T09:09:53;9.27;;;2.63;;
68921;SDS011;55959;51.244;5.724;2023-12-20T09:12:19;9.00;;;2.43;;
68921;SDS011;55959;51.244;5.724;2023-12-20T09:14:46;6.20;;;2.20;;
68921;SDS011;55959;51.244;5.724;2023-12-20T09:17:12;11.50;;;2.90;;
68921;SDS011;55959;51.244;5.724;2023-12-20T09:19:38;7.67;;;2.33;;
68921;SDS011;55959;51.244;5.724;2023-12-20T09:22:05;9.27;;;2.57;;
68921;SDS011;55959;51.244;5.724;2023-12-20T09:24:31;7.07;;;2.40;;
68921;SDS011;55959;51.244;5.724;2023-12-20T09:26:56;8.07;;;2.63;;
68921;SDS011;55959;51.244;5.724;2023-12-20T09:29:22;6.67;;;2.40;;
68921;SDS011;55959;51.244;5.724;2023-12-20T09:31:49;6.70;;;2.67;;
68921;SDS011;55959;51.244;5.724;2023-12-20T09:34:15;7.63;;;2.47;;
68921;SDS011;55959;51.244;5.724;2023-12-20T09:36:43;10.50;;;2.27;;
68921;SDS011;55959;51.244;5.724;2023-12-20T09:39:16;8.60;;;2.47;;
68921;SDS011;55959;51.244;5.724;2023-12-20T09:41:46;8.67;;;3.03;;
68921;SDS011;55959;51.244;5.724;2023-12-20T09:44:22;12.23;;;3.07;;
68921;SDS011;55959;51.244;5.724;2023-12-20T09:46:49;6.43;;;2.67;;
68921;SDS011;55959;51.244;5.724;2023-12-20T09:49:17;8.67;;;2.50;;
68921;SDS011;55959;51.244;5.724;2023-12-20T09:51:43;10.23;;;2.40;;
68921;SDS011;55959;51.244;5.724;2023-12-20T09:54:16;13.23;;;3.20;;
68921;SDS011;55959;51.244;5.724;2023-12-20T09:56:43;10.00;;;3.03;;
68921;SDS011;55959;51.244;5.724;2023-12-20T09:59:12;8.67;;;2.37;;
68921;SDS011;55959;51.244;5.724;2023-12-20T10:01:39;7.27;;;2.87;;
68921;SDS011;55959;51.244;5.724;2023-12-20T10:04:06;6.83;;;2.07;;
68921;SDS011;55959;51.244;5.724;2023-12-20T10:06:37;8.03;;;2.23;;
68921;SDS011;55959;51.244;5.724;2023-12-20T10:09:12;8.30;;;1.97;;
68921;SDS011;55959;51.244;5.724;2023-12-20T10:11:38;9.00;;;3.03;;
68921;SDS011;55959;51.244;5.724;2023-12-20T10:14:05;6.83;;;2.50;;
68921;SDS011;55959;51.244;5.724;2023-12-20T10:16:32;12.77;;;2.53;;
68921;SDS011;55959;51.244;5.724;2023-12-20T10:18:59;9.50;;;2.50;;
68921;SDS011;55959;51.244;5.724;2023-12-20T10:21:29;7.63;;;2.37;;
68921;SDS011;55959;51.244;5.724;2023-12-20T10:23:55;8.73;;;2.50;;
68921;SDS011;55959;51.244;5.724;2023-12-20T10:26:22;9.17;;;2.30;;
68921;SDS011;55959;51.244;5.724;2023-12-20T10:28:53;7.97;;;2.10;;
68921;SDS011;55959;51.244;5.724;2023-12-20T10:31:27;7.37;;;2.80;;
68921;SDS011;55959;51.244;5.724;2023-12-20T10:33:55;9.47;;;2.57;;
68921;SDS011;55959;51.244;5.724;2023-12-20T10:36:24;12.53;;;3.07;;
68921;SDS011;55959;51.244;5.724;2023-12-20T10:38:55;9.20;;;2.97;;
68921;SDS011;55959;51.244;5.724;2023-12-20T10:43:53;5.80;;;2.03;;
68921;SDS011;55959;51.244;5.724;2023-12-20T10:46:23;8.20;;;2.20;;
68921;SDS011;55959;51.244;5.724;2023-12-20T10:48:51;7.30;;;2.30;;
68921;SDS011;55959;51.244;5.724;2023-12-20T10:51:19;7.30;;;2.77;;
68921;SDS011;55959;51.244;5.724;2023-12-20T10:53:48;11.07;;;3.17;;
68921;SDS011;55959;51.244;5.724;2023-12-20T10:56:16;6.43;;;2.30;;
68921;SDS011;55959;51.244;5.724;2023-12-20T10:58:49;13.00;;;2.73;;
68921;SDS011;55959;51.244;5.724;2023-12-20T11:01:16;6.60;;;2.33;;
68921;SDS011;55959;51.244;5.724;2023-12-20T11:03:51;6.77;;;2.30;;
68921;SDS011;55959;51.244;5.724;2023-12-20T11:11:58;9.73;;;2.37;;
68921;SDS011;55959;51.244;5.724;2023-12-20T11:14:53;7.30;;;2.40;;
68921;SDS011;55959;51.244;5.724;2023-12-20T11:17:27;8.17;;;2.57;;
68921;SDS011;55959;51.244;5.724;2023-12-20T11:22:25;8.33;;;2.53;;
68921;SDS011;55959;51.244;5.724;2023-12-20T11:24:58;7.17;;;2.40;;
68921;SDS011;55959;51.244;5.724;2023-12-20T11:27:42;7.47;;;3.03;;
68921;SDS011;55959;51.244;5.724;2023-12-20T11:30:08;6.83;;;2.33;;
68921;SDS011;55959;51.244;5.724;2023-12-20T11:32:35;10.43;;;2.87;;
68921;SDS011;55959;51.244;5.724;2023-12-20T11:37:35;8.23;;;2.30;;
68921;SDS011;55959;51.244;5.724;2023-12-20T11:40:03;11.07;;;2.67;;
68921;SDS011;55959;51.244;5.724;2023-12-20T11:42:37;11.27;;;2.83;;
68921;SDS011;55959;51.244;5.724;2023-12-20T11:45:21;11.90;;;3.47;;
68921;SDS011;55959;51.244;5.724;2023-12-20T11:47:50;9.80;;;2.50;;
68921;SDS011;55959;51.244;5.724;2023-12-20T11:50:17;4.23;;;1.90;;
68921;SDS011;55959;51.244;5.724;2023-12-20T11:52:43;9.13;;;2.57;;
68921;SDS011;55959;51.244;5.724;2023-12-20T11:55:09;6.90;;;2.90;;
68921;SDS011;55959;51.244;5.724;2023-12-20T11:57:35;7.83;;;2.97;;
68921;SDS011;55959;51.244;5.724;2023-12-20T12:00:02;7.80;;;2.93;;
68921;SDS011;55959;51.244;5.724;2023-12-20T12:02:29;7.67;;;2.53;;
68921;SDS011;55959;51.244;5.724;2023-12-20T12:04:55;10.40;;;2.80;;
68921;SDS011;55959;51.244;5.724;2023-12-20T12:07:21;7.63;;;2.53;;
68921;SDS011;55959;51.244;5.724;2023-12-20T12:09:47;7.50;;;2.80;;
68921;SDS011;55959;51.244;5.724;2023-12-20T12:12:13;6.07;;;2.47;;
68921;SDS011;55959;51.244;5.724;2023-12-20T12:14:40;8.27;;;2.37;;
68921;SDS011;55959;51.244;5.724;2023-12-20T12:17:12;6.13;;;2.80;;
68921;SDS011;55959;51.244;5.724;2023-12-20T12:19:39;7.83;;;2.43;;
68921;SDS011;55959;51.244;5.724;2023-12-20T12:22:10;7.27;;;2.43;;
68921;SDS011;55959;51.244;5.724;2023-12-20T12:24:41;9.27;;;2.50;;
68921;SDS011;55959;51.244;5.724;2023-12-20T12:27:13;7.80;;;2.73;;
68921;SDS011;55959;51.244;5.724;2023-12-20T12:29:39;6.53;;;2.30;;
68921;SDS011;55959;51.244;5.724;2023-12-20T12:32:08;4.17;;;2.00;;
68921;SDS011;55959;51.244;5.724;2023-12-20T12:34:35;7.33;;;3.10;;
68921;SDS011;55959;51.244;5.724;2023-12-20T12:37:01;8.40;;;2.87;;
68921;SDS011;55959;51.244;5.724;2023-12-20T12:39:29;7.53;;;2.77;;
68921;SDS011;55959;51.244;5.724;2023-12-20T12:41:56;7.77;;;2.80;;
68921;SDS011;55959;51.244;5.724;2023-12-20T12:44:22;8.57;;;2.53;;
68921;SDS011;55959;51.244;5.724;2023-12-20T12:46:50;7.33;;;2.63;;
68921;SDS011;55959;51.244;5.724;2023-12-20T12:49:16;7.03;;;2.63;;
68921;SDS011;55959;51.244;5.724;2023-12-20T12:51:42;8.27;;;2.80;;
68921;SDS011;55959;51.244;5.724;2023-12-20T12:54:09;6.53;;;2.60;;
68921;SDS011;55959;51.244;5.724;2023-12-20T12:56:35;7.93;;;2.70;;
68921;SDS011;55959;51.244;5.724;2023-12-20T12:59:02;8.40;;;3.23;;
68921;SDS011;55959;51.244;5.724;2023-12-20T13:01:27;7.67;;;2.50;;
68921;SDS011;55959;51.244;5.724;2023-12-20T13:03:53;9.73;;;2.87;;
68921;SDS011;55959;51.244;5.724;2023-12-20T13:06:19;8.60;;;3.07;;
68921;SDS011;55959;51.244;5.724;2023-12-20T13:08:45;6.13;;;2.50;;
68921;SDS011;55959;51.244;5.724;2023-12-20T13:11:11;10.93;;;3.50;;
68921;SDS011;55959;51.244;5.724;2023-12-20T13:13:37;6.47;;;2.47;;
68921;SDS011;55959;51.244;5.724;2023-12-20T13:16:02;7.97;;;2.57;;
68921;SDS011;55959;51.244;5.724;2023-12-20T13:18:29;6.67;;;2.47;;
68921;SDS011;55959;51.244;5.724;2023-12-20T13:20:54;6.60;;;2.53;;
68921;SDS011;55959;51.244;5.724;2023-12-20T13:23:20;10.47;;;2.80;;
68921;SDS011;55959;51.244;5.724;2023-12-20T13:25:46;7.40;;;2.33;;
68921;SDS011;55959;51.244;5.724;2023-12-20T13:28:12;9.43;;;3.17;;
68921;SDS011;55959;51.244;5.724;2023-12-20T13:30:38;6.13;;;2.30;;
68921;SDS011;55959;51.244;5.724;2023-12-20T13:33:04;10.07;;;3.27;;
68921;SDS011;55959;51.244;5.724;2023-12-20T13:35:30;6.20;;;2.50;;
68921;SDS011;55959;51.244;5.724;2023-12-20T13:37:57;9.00;;;2.83;;
68921;SDS011;55959;51.244;5.724;2023-12-20T13:40:23;6.97;;;2.67;;
68921;SDS011;55959;51.244;5.724;2023-12-20T13:42:49;8.33;;;2.70;;
68921;SDS011;55959;51.244;5.724;2023-12-20T13:45:15;6.40;;;2.30;;
68921;SDS011;55959;51.244;5.724;2023-12-20T13:47:41;9.10;;;2.90;;
68921;SDS011;55959;51.244;5.724;2023-12-20T13:50:07;5.30;;;2.33;;
68921;SDS011;55959;51.244;5.724;2023-12-20T13:52:33;9.13;;;2.90;;
68921;SDS011;55959;51.244;5.724;2023-12-20T13:54:59;8.23;;;2.80;;
68921;SDS011;55959;51.244;5.724;2023-12-20T13:57:24;9.20;;;2.90;;
68921;SDS011;55959;51.244;5.724;2023-12-20T13:59:50;8.13;;;3.13;;
68921;SDS011;55959;51.244;5.724;2023-12-20T14:02:16;7.20;;;2.60;;
68921;SDS011;55959;51.244;5.724;2023-12-20T14:04:42;7.83;;;2.63;;
68921;SDS011;55959;51.244;5.724;2023-12-20T14:07:08;6.70;;;2.70;;
68921;SDS011;55959;51.244;5.724;2023-12-20T14:09:35;6.67;;;2.83;;
68921;SDS011;55959;51.244;5.724;2023-12-20T14:12:00;8.43;;;2.80;;
68921;SDS011;55959;51.244;5.724;2023-12-20T14:14:26;9.37;;;2.97;;
68921;SDS011;55959;51.244;5.724;2023-12-20T14:16:52;8.27;;;2.90;;
68921;SDS011;55959;51.244;5.724;2023-12-20T14:19:18;9.97;;;3.43;;
68921;SDS011;55959;51.244;5.724;2023-12-20T14:21:44;10.90;;;3.23;;
68921;SDS011;55959;51.244;5.724;2023-12-20T14:24:11;9.00;;;2.93;;
68921;SDS011;55959;51.244;5.724;2023-12-20T14:26:40;7.73;;;3.40;;
68921;SDS011;55959;51.244;5.724;2023-12-20T14:29:07;8.53;;;3.40;;
68921;SDS011;55959;51.244;5.724;2023-12-20T14:31:33;6.97;;;2.50;;
68921;SDS011;55959;51.244;5.724;2023-12-20T14:33:59;8.93;;;3.37;;
68921;SDS011;55959;51.244;5.724;2023-12-20T14:36:28;6.87;;;3.03;;
68921;SDS011;55959;51.244;5.724;2023-12-20T14:38:57;6.33;;;2.77;;
68921;SDS011;55959;51.244;5.724;2023-12-20T14:41:23;7.73;;;3.03;;
68921;SDS011;55959;51.244;5.724;2023-12-20T14:43:50;7.33;;;2.63;;
68921;SDS011;55959;51.244;5.724;2023-12-20T14:46:19;9.33;;;3.00;;
68921;SDS011;55959;51.244;5.724;2023-12-20T14:48:45;7.97;;;3.07;;
68921;SDS011;55959;51.244;5.724;2023-12-20T14:51:11;7.53;;;3.10;;
68921;SDS011;55959;51.244;5.724;2023-12-20T14:53:38;10.67;;;3.43;;
68921;SDS011;55959;51.244;5.724;2023-12-20T14:56:04;9.07;;;2.87;;